sensor_id;sensor_type;location;lat;lon;timestamp;P1;durP1;ratioP1;P2;durP2;ratioP2
72437;SDS011;60444;43.534;-5.674;2022-07-09T00:01:42;7.93;;;2.37;;
72437;SDS011;60444;43.534;-5.674;2022-07-09T00:04:10;6.95;;;2.95;;
72437;SDS011;60444;43.534;-5.674;2022-07-09T00:06:36;8.15;;;2.60;;
72437;SDS011;60444;43.534;-5.674;2022-07-09T00:09:02;6.23;;;2.87;;
72437;SDS011;60444;43.534;-5.674;2022-07-09T00:11:30;9.33;;;3.00;;
72437;SDS011;60444;43.534;-5.674;2022-07-09T00:13:56;8.48;;;2.97;;
72437;SDS011;60444;43.534;-5.674;2022-07-09T00:16:24;6.68;;;2.50;;
72437;SDS011;60444;43.534;-5.674;2022-07-09T00:18:51;9.93;;;3.47;;
72437;SDS011;60444;43.534;-5.674;2022-07-09T00:21:20;9.10;;;3.08;;
72437;SDS011;60444;43.534;-5.674;2022-07-09T00:23:45;9.50;;;4.00;;
72437;SDS011;60444;43.534;-5.674;2022-07-09T00:26:14;8.30;;;3.10;;
72437;SDS011;60444;43.534;-5.674;2022-07-09T00:28:39;7.57;;;3.50;;
72437;SDS011;60444;43.534;-5.674;2022-07-09T00:31:34;8.68;;;3.50;;
72437;SDS011;60444;43.534;-5.674;2022-07-09T00:33:59;10.27;;;3.27;;
72437;SDS011;60444;43.534;-5.674;2022-07-09T00:36:25;10.23;;;3.73;;
72437;SDS011;60444;43.534;-5.674;2022-07-09T00:38:51;8.73;;;3.22;;
72437;SDS011;60444;43.534;-5.674;2022-07-09T00:41:16;9.00;;;3.70;;
72437;SDS011;60444;43.534;-5.674;2022-07-09T00:43:49;8.57;;;3.20;;
72437;SDS011;60444;43.534;-5.674;2022-07-09T00:46:20;7.22;;;3.28;;
72437;SDS011;60444;43.534;-5.674;2022-07-09T00:48:46;7.37;;;3.37;;
72437;SDS011;60444;43.534;-5.674;2022-07-09T00:51:12;10.60;;;3.30;;
72437;SDS011;60444;43.534;-5.674;2022-07-09T00:53:45;9.52;;;4.35;;
72437;SDS011;60444;43.534;-5.674;2022-07-09T00:56:21;9.00;;;3.70;;
72437;SDS011;60444;43.534;-5.674;2022-07-09T00:58:48;6.65;;;3.42;;
72437;SDS011;60444;43.534;-5.674;2022-07-09T01:01:19;8.70;;;3.63;;
72437;SDS011;60444;43.534;-5.674;2022-07-09T01:03:48;9.63;;;2.80;;
72437;SDS011;60444;43.534;-5.674;2022-07-09T01:06:20;6.50;;;2.70;;
72437;SDS011;60444;43.534;-5.674;2022-07-09T01:08:57;7.43;;;3.30;;
72437;SDS011;60444;43.534;-5.674;2022-07-09T01:11:30;7.45;;;2.90;;
72437;SDS011;60444;43.534;-5.674;2022-07-09T01:13:56;6.38;;;2.83;;
72437;SDS011;60444;43.534;-5.674;2022-07-09T01:16:29;8.75;;;3.42;;
72437;SDS011;60444;43.534;-5.674;2022-07-09T01:19:02;6.73;;;3.00;;
72437;SDS011;60444;43.534;-5.674;2022-07-09T01:21:28;7.68;;;3.45;;
72437;SDS011;60444;43.534;-5.674;2022-07-09T01:23:59;12.85;;;3.40;;
72437;SDS011;60444;43.534;-5.674;2022-07-09T01:26:25;8.20;;;3.05;;
72437;SDS011;60444;43.534;-5.674;2022-07-09T01:28:54;7.82;;;3.20;;
72437;SDS011;60444;43.534;-5.674;2022-07-09T01:31:20;9.07;;;3.53;;
72437;SDS011;60444;43.534;-5.674;2022-07-09T01:33:45;9.35;;;4.45;;
72437;SDS011;60444;43.534;-5.674;2022-07-09T01:36:14;12.27;;;4.90;;
72437;SDS011;60444;43.534;-5.674;2022-07-09T01:38:40;12.30;;;4.43;;
72437;SDS011;60444;43.534;-5.674;2022-07-09T01:41:05;14.67;;;4.07;;
72437;SDS011;60444;43.534;-5.674;2022-07-09T01:43:31;13.20;;;4.60;;
72437;SDS011;60444;43.534;-5.674;2022-07-09T01:45:59;11.98;;;4.28;;
72437;SDS011;60444;43.534;-5.674;2022-07-09T01:48:28;10.80;;;4.40;;
72437;SDS011;60444;43.534;-5.674;2022-07-09T01:50:56;8.20;;;3.25;;
72437;SDS011;60444;43.534;-5.674;2022-07-09T01:53:23;9.07;;;3.88;;
72437;SDS011;60444;43.534;-5.674;2022-07-09T01:55:49;9.10;;;3.67;;
72437;SDS011;60444;43.534;-5.674;2022-07-09T01:58:15;8.40;;;3.88;;
72437;SDS011;60444;43.534;-5.674;2022-07-09T02:00:43;9.57;;;3.72;;
72437;SDS011;60444;43.534;-5.674;2022-07-09T02:03:12;7.37;;;3.17;;
72437;SDS011;60444;43.534;-5.674;2022-07-09T02:05:37;7.18;;;3.50;;
72437;SDS011;60444;43.534;-5.674;2022-07-09T02:08:03;7.70;;;3.13;;
72437;SDS011;60444;43.534;-5.674;2022-07-09T02:10:29;8.70;;;3.73;;
72437;SDS011;60444;43.534;-5.674;2022-07-09T02:12:55;8.25;;;3.13;;
72437;SDS011;60444;43.534;-5.674;2022-07-09T02:15:20;7.40;;;2.90;;
72437;SDS011;60444;43.534;-5.674;2022-07-09T02:17:47;7.38;;;2.97;;
72437;SDS011;60444;43.534;-5.674;2022-07-09T02:20:12;8.35;;;3.15;;
72437;SDS011;60444;43.534;-5.674;2022-07-09T02:22:38;6.80;;;3.00;;
72437;SDS011;60444;43.534;-5.674;2022-07-09T02:25:04;7.20;;;3.05;;
72437;SDS011;60444;43.534;-5.674;2022-07-09T02:27:33;6.10;;;3.10;;
72437;SDS011;60444;43.534;-5.674;2022-07-09T02:30:01;8.00;;;3.13;;
72437;SDS011;60444;43.534;-5.674;2022-07-09T02:32:30;6.90;;;3.03;;
72437;SDS011;60444;43.534;-5.674;2022-07-09T02:35:06;7.00;;;3.10;;
72437;SDS011;60444;43.534;-5.674;2022-07-09T02:37:32;6.68;;;2.92;;
72437;SDS011;60444;43.534;-5.674;2022-07-09T02:39:59;6.63;;;2.83;;
72437;SDS011;60444;43.534;-5.674;2022-07-09T02:42:27;7.43;;;3.30;;
72437;SDS011;60444;43.534;-5.674;2022-07-09T02:44:56;8.68;;;3.45;;
72437;SDS011;60444;43.534;-5.674;2022-07-09T02:47:28;6.97;;;3.40;;
72437;SDS011;60444;43.534;-5.674;2022-07-09T02:49:54;8.93;;;3.60;;
72437;SDS011;60444;43.534;-5.674;2022-07-09T02:52:22;8.10;;;3.30;;
72437;SDS011;60444;43.534;-5.674;2022-07-09T02:54:50;8.80;;;3.40;;
72437;SDS011;60444;43.534;-5.674;2022-07-09T02:57:15;8.97;;;3.67;;
72437;SDS011;60444;43.534;-5.674;2022-07-09T02:59:46;7.80;;;3.65;;
72437;SDS011;60444;43.534;-5.674;2022-07-09T03:02:14;7.38;;;3.20;;
72437;SDS011;60444;43.534;-5.674;2022-07-09T03:04:46;6.53;;;3.83;;
72437;SDS011;60444;43.534;-5.674;2022-07-09T03:07:11;6.57;;;3.60;;
72437;SDS011;60444;43.534;-5.674;2022-07-09T03:09:40;8.70;;;3.80;;
72437;SDS011;60444;43.534;-5.674;2022-07-09T03:12:12;7.47;;;3.80;;
72437;SDS011;60444;43.534;-5.674;2022-07-09T03:14:37;8.27;;;3.80;;
72437;SDS011;60444;43.534;-5.674;2022-07-09T03:17:03;7.93;;;3.87;;
72437;SDS011;60444;43.534;-5.674;2022-07-09T03:19:31;8.30;;;3.95;;
72437;SDS011;60444;43.534;-5.674;2022-07-09T03:21:59;7.43;;;4.00;;
72437;SDS011;60444;43.534;-5.674;2022-07-09T03:24:25;7.80;;;3.78;;
72437;SDS011;60444;43.534;-5.674;2022-07-09T03:26:53;7.67;;;3.80;;
72437;SDS011;60444;43.534;-5.674;2022-07-09T03:29:19;7.72;;;4.43;;
72437;SDS011;60444;43.534;-5.674;2022-07-09T03:31:44;10.17;;;4.40;;
72437;SDS011;60444;43.534;-5.674;2022-07-09T03:34:10;10.25;;;4.50;;
72437;SDS011;60444;43.534;-5.674;2022-07-09T03:36:35;10.03;;;4.83;;
72437;SDS011;60444;43.534;-5.674;2022-07-09T03:39:04;8.80;;;4.18;;
72437;SDS011;60444;43.534;-5.674;2022-07-09T03:41:30;8.97;;;4.30;;
72437;SDS011;60444;43.534;-5.674;2022-07-09T03:44:01;9.57;;;4.13;;
72437;SDS011;60444;43.534;-5.674;2022-07-09T03:46:27;9.27;;;4.80;;
72437;SDS011;60444;43.534;-5.674;2022-07-09T03:48:54;9.00;;;4.90;;
72437;SDS011;60444;43.534;-5.674;2022-07-09T03:51:20;9.53;;;4.27;;
72437;SDS011;60444;43.534;-5.674;2022-07-09T03:53:48;7.10;;;3.90;;
72437;SDS011;60444;43.534;-5.674;2022-07-09T03:56:16;9.23;;;4.85;;
72437;SDS011;60444;43.534;-5.674;2022-07-09T03:58:42;9.07;;;4.40;;
72437;SDS011;60444;43.534;-5.674;2022-07-09T04:01:10;9.45;;;4.32;;
72437;SDS011;60444;43.534;-5.674;2022-07-09T04:03:36;9.90;;;5.00;;
72437;SDS011;60444;43.534;-5.674;2022-07-09T04:06:07;8.15;;;4.50;;
72437;SDS011;60444;43.534;-5.674;2022-07-09T04:08:35;10.20;;;4.50;;
72437;SDS011;60444;43.534;-5.674;2022-07-09T04:11:01;9.00;;;4.60;;
72437;SDS011;60444;43.534;-5.674;2022-07-09T04:13:29;12.45;;;5.90;;
72437;SDS011;60444;43.534;-5.674;2022-07-09T04:15:59;9.48;;;5.30;;
72437;SDS011;60444;43.534;-5.674;2022-07-09T04:18:25;8.90;;;4.40;;
72437;SDS011;60444;43.534;-5.674;2022-07-09T04:20:51;9.18;;;4.80;;
72437;SDS011;60444;43.534;-5.674;2022-07-09T04:23:16;10.27;;;4.90;;
72437;SDS011;60444;43.534;-5.674;2022-07-09T04:25:51;9.93;;;4.88;;
72437;SDS011;60444;43.534;-5.674;2022-07-09T04:28:19;8.00;;;4.60;;
72437;SDS011;60444;43.534;-5.674;2022-07-09T04:30:50;11.27;;;5.53;;
72437;SDS011;60444;43.534;-5.674;2022-07-09T04:33:16;11.05;;;5.00;;
72437;SDS011;60444;43.534;-5.674;2022-07-09T04:35:43;9.23;;;5.00;;
72437;SDS011;60444;43.534;-5.674;2022-07-09T04:38:12;8.68;;;5.47;;
72437;SDS011;60444;43.534;-5.674;2022-07-09T04:40:38;9.98;;;5.43;;
72437;SDS011;60444;43.534;-5.674;2022-07-09T04:43:04;10.13;;;4.82;;
72437;SDS011;60444;43.534;-5.674;2022-07-09T04:45:30;8.75;;;5.18;;
72437;SDS011;60444;43.534;-5.674;2022-07-09T04:47:57;10.17;;;4.80;;
72437;SDS011;60444;43.534;-5.674;2022-07-09T04:50:24;10.80;;;5.07;;
72437;SDS011;60444;43.534;-5.674;2022-07-09T04:52:50;11.10;;;5.13;;
72437;SDS011;60444;43.534;-5.674;2022-07-09T04:55:16;8.57;;;4.70;;
72437;SDS011;60444;43.534;-5.674;2022-07-09T04:57:46;10.10;;;5.30;;
72437;SDS011;60444;43.534;-5.674;2022-07-09T05:00:12;9.30;;;4.70;;
72437;SDS011;60444;43.534;-5.674;2022-07-09T05:02:41;9.63;;;4.63;;
72437;SDS011;60444;43.534;-5.674;2022-07-09T05:05:08;10.23;;;4.60;;
72437;SDS011;60444;43.534;-5.674;2022-07-09T05:07:36;9.25;;;4.75;;
72437;SDS011;60444;43.534;-5.674;2022-07-09T05:10:12;8.68;;;4.95;;
72437;SDS011;60444;43.534;-5.674;2022-07-09T05:12:37;8.53;;;4.77;;
72437;SDS011;60444;43.534;-5.674;2022-07-09T05:15:04;9.07;;;4.90;;
72437;SDS011;60444;43.534;-5.674;2022-07-09T05:17:33;8.45;;;4.50;;
72437;SDS011;60444;43.534;-5.674;2022-07-09T05:19:59;9.30;;;5.13;;
72437;SDS011;60444;43.534;-5.674;2022-07-09T05:22:25;8.68;;;4.57;;
72437;SDS011;60444;43.534;-5.674;2022-07-09T05:24:53;10.03;;;4.90;;
72437;SDS011;60444;43.534;-5.674;2022-07-09T05:27:19;8.25;;;4.20;;
72437;SDS011;60444;43.534;-5.674;2022-07-09T05:29:47;8.10;;;4.50;;
72437;SDS011;60444;43.534;-5.674;2022-07-09T05:32:12;10.38;;;4.88;;
72437;SDS011;60444;43.534;-5.674;2022-07-09T05:34:40;10.80;;;5.03;;
72437;SDS011;60444;43.534;-5.674;2022-07-09T05:37:06;9.47;;;5.00;;
72437;SDS011;60444;43.534;-5.674;2022-07-09T05:39:32;9.85;;;4.88;;
72437;SDS011;60444;43.534;-5.674;2022-07-09T05:42:00;10.53;;;5.10;;
72437;SDS011;60444;43.534;-5.674;2022-07-09T05:44:38;8.98;;;4.90;;
72437;SDS011;60444;43.534;-5.674;2022-07-09T05:47:06;9.02;;;4.53;;
72437;SDS011;60444;43.534;-5.674;2022-07-09T05:49:32;9.02;;;4.63;;
72437;SDS011;60444;43.534;-5.674;2022-07-09T05:52:01;7.90;;;5.00;;
72437;SDS011;60444;43.534;-5.674;2022-07-09T05:54:32;9.02;;;4.75;;
72437;SDS011;60444;43.534;-5.674;2022-07-09T05:57:01;9.40;;;4.60;;
72437;SDS011;60444;43.534;-5.674;2022-07-09T05:59:27;9.10;;;4.30;;
72437;SDS011;60444;43.534;-5.674;2022-07-09T06:01:52;9.55;;;4.43;;
72437;SDS011;60444;43.534;-5.674;2022-07-09T06:04:18;8.47;;;4.73;;
72437;SDS011;60444;43.534;-5.674;2022-07-09T06:06:43;11.10;;;5.03;;
72437;SDS011;60444;43.534;-5.674;2022-07-09T06:09:10;8.65;;;4.88;;
72437;SDS011;60444;43.534;-5.674;2022-07-09T06:11:35;9.67;;;4.70;;
72437;SDS011;60444;43.534;-5.674;2022-07-09T06:14:03;8.90;;;5.00;;
72437;SDS011;60444;43.534;-5.674;2022-07-09T06:16:29;9.25;;;4.80;;
72437;SDS011;60444;43.534;-5.674;2022-07-09T06:18:54;8.63;;;4.67;;
72437;SDS011;60444;43.534;-5.674;2022-07-09T06:21:20;10.43;;;5.32;;
72437;SDS011;60444;43.534;-5.674;2022-07-09T06:23:49;10.43;;;5.20;;
72437;SDS011;60444;43.534;-5.674;2022-07-09T06:26:14;8.77;;;4.50;;
72437;SDS011;60444;43.534;-5.674;2022-07-09T06:28:43;11.77;;;5.13;;
72437;SDS011;60444;43.534;-5.674;2022-07-09T06:31:08;10.23;;;5.43;;
72437;SDS011;60444;43.534;-5.674;2022-07-09T06:33:34;10.70;;;5.30;;
72437;SDS011;60444;43.534;-5.674;2022-07-09T06:35:59;11.10;;;5.00;;
72437;SDS011;60444;43.534;-5.674;2022-07-09T06:38:31;8.85;;;4.80;;
72437;SDS011;60444;43.534;-5.674;2022-07-09T06:40:56;9.97;;;5.13;;
72437;SDS011;60444;43.534;-5.674;2022-07-09T06:43:28;11.25;;;5.05;;
72437;SDS011;60444;43.534;-5.674;2022-07-09T06:45:53;10.48;;;5.15;;
72437;SDS011;60444;43.534;-5.674;2022-07-09T06:48:19;9.07;;;4.50;;
72437;SDS011;60444;43.534;-5.674;2022-07-09T06:50:44;10.50;;;5.25;;
72437;SDS011;60444;43.534;-5.674;2022-07-09T06:53:10;11.37;;;5.27;;
72437;SDS011;60444;43.534;-5.674;2022-07-09T06:55:36;12.40;;;5.55;;
72437;SDS011;60444;43.534;-5.674;2022-07-09T06:58:04;10.50;;;5.20;;
72437;SDS011;60444;43.534;-5.674;2022-07-09T07:00:34;10.80;;;5.53;;
72437;SDS011;60444;43.534;-5.674;2022-07-09T07:03:00;10.15;;;5.13;;
72437;SDS011;60444;43.534;-5.674;2022-07-09T07:05:26;11.90;;;6.10;;
72437;SDS011;60444;43.534;-5.674;2022-07-09T07:07:52;10.82;;;5.38;;
72437;SDS011;60444;43.534;-5.674;2022-07-09T07:10:17;10.83;;;5.57;;
72437;SDS011;60444;43.534;-5.674;2022-07-09T07:12:43;11.70;;;5.70;;
72437;SDS011;60444;43.534;-5.674;2022-07-09T07:15:09;11.20;;;5.53;;
72437;SDS011;60444;43.534;-5.674;2022-07-09T07:17:39;10.13;;;4.70;;
72437;SDS011;60444;43.534;-5.674;2022-07-09T07:20:05;20.37;;;9.77;;
72437;SDS011;60444;43.534;-5.674;2022-07-09T07:22:33;13.50;;;6.37;;
72437;SDS011;60444;43.534;-5.674;2022-07-09T07:25:02;10.23;;;4.97;;
72437;SDS011;60444;43.534;-5.674;2022-07-09T07:27:28;11.68;;;5.80;;
72437;SDS011;60444;43.534;-5.674;2022-07-09T07:29:54;12.40;;;5.20;;
72437;SDS011;60444;43.534;-5.674;2022-07-09T07:32:24;12.07;;;5.35;;
72437;SDS011;60444;43.534;-5.674;2022-07-09T07:34:53;11.65;;;5.63;;
72437;SDS011;60444;43.534;-5.674;2022-07-09T07:37:19;15.93;;;8.27;;
72437;SDS011;60444;43.534;-5.674;2022-07-09T07:39:44;13.60;;;6.60;;
72437;SDS011;60444;43.534;-5.674;2022-07-09T07:42:12;11.35;;;6.05;;
72437;SDS011;60444;43.534;-5.674;2022-07-09T07:44:39;10.35;;;4.88;;
72437;SDS011;60444;43.534;-5.674;2022-07-09T07:47:05;11.83;;;5.33;;
72437;SDS011;60444;43.534;-5.674;2022-07-09T07:49:30;13.77;;;6.50;;
72437;SDS011;60444;43.534;-5.674;2022-07-09T07:51:56;13.23;;;6.30;;
72437;SDS011;60444;43.534;-5.674;2022-07-09T07:54:22;13.40;;;6.90;;
72437;SDS011;60444;43.534;-5.674;2022-07-09T07:56:55;14.75;;;6.90;;
72437;SDS011;60444;43.534;-5.674;2022-07-09T07:59:21;11.67;;;6.00;;
72437;SDS011;60444;43.534;-5.674;2022-07-09T08:01:49;10.43;;;5.32;;
72437;SDS011;60444;43.534;-5.674;2022-07-09T08:04:15;11.70;;;6.07;;
72437;SDS011;60444;43.534;-5.674;2022-07-09T08:06:40;9.73;;;5.17;;
72437;SDS011;60444;43.534;-5.674;2022-07-09T08:09:16;11.38;;;6.32;;
72437;SDS011;60444;43.534;-5.674;2022-07-09T08:11:42;10.57;;;5.63;;
72437;SDS011;60444;43.534;-5.674;2022-07-09T08:14:07;11.90;;;6.90;;
72437;SDS011;60444;43.534;-5.674;2022-07-09T08:16:34;10.05;;;5.72;;
72437;SDS011;60444;43.534;-5.674;2022-07-09T08:19:00;11.53;;;6.57;;
72437;SDS011;60444;43.534;-5.674;2022-07-09T08:21:25;12.10;;;5.90;;
72437;SDS011;60444;43.534;-5.674;2022-07-09T08:23:51;13.43;;;5.87;;
72437;SDS011;60444;43.534;-5.674;2022-07-09T08:26:19;12.68;;;6.10;;
72437;SDS011;60444;43.534;-5.674;2022-07-09T08:28:45;9.83;;;5.57;;
72437;SDS011;60444;43.534;-5.674;2022-07-09T08:31:18;10.57;;;5.63;;
72437;SDS011;60444;43.534;-5.674;2022-07-09T08:33:44;10.57;;;6.13;;
72437;SDS011;60444;43.534;-5.674;2022-07-09T08:36:11;10.88;;;5.43;;
72437;SDS011;60444;43.534;-5.674;2022-07-09T08:38:39;10.30;;;5.72;;
72437;SDS011;60444;43.534;-5.674;2022-07-09T08:41:08;11.07;;;5.27;;
72437;SDS011;60444;43.534;-5.674;2022-07-09T08:43:38;9.93;;;5.70;;
72437;SDS011;60444;43.534;-5.674;2022-07-09T08:46:06;12.02;;;5.90;;
72437;SDS011;60444;43.534;-5.674;2022-07-09T08:48:35;13.30;;;6.00;;
72437;SDS011;60444;43.534;-5.674;2022-07-09T08:51:02;12.25;;;6.03;;
72437;SDS011;60444;43.534;-5.674;2022-07-09T08:53:28;11.10;;;5.80;;
72437;SDS011;60444;43.534;-5.674;2022-07-09T08:56:00;11.90;;;5.80;;
72437;SDS011;60444;43.534;-5.674;2022-07-09T08:58:29;10.90;;;6.00;;
72437;SDS011;60444;43.534;-5.674;2022-07-09T09:00:57;19.13;;;6.35;;
72437;SDS011;60444;43.534;-5.674;2022-07-09T09:03:23;9.70;;;5.65;;
72437;SDS011;60444;43.534;-5.674;2022-07-09T09:06:05;10.30;;;5.23;;
72437;SDS011;60444;43.534;-5.674;2022-07-09T09:08:38;9.30;;;4.97;;
72437;SDS011;60444;43.534;-5.674;2022-07-09T09:11:06;12.90;;;5.10;;
72437;SDS011;60444;43.534;-5.674;2022-07-09T09:13:36;11.20;;;4.80;;
72437;SDS011;60444;43.534;-5.674;2022-07-09T09:16:16;12.38;;;4.80;;
72437;SDS011;60444;43.534;-5.674;2022-07-09T09:18:51;11.03;;;4.00;;
72437;SDS011;60444;43.534;-5.674;2022-07-09T09:21:21;11.38;;;3.67;;
72437;SDS011;60444;43.534;-5.674;2022-07-09T09:23:50;10.35;;;4.10;;
72437;SDS011;60444;43.534;-5.674;2022-07-09T09:26:22;8.20;;;3.60;;
72437;SDS011;60444;43.534;-5.674;2022-07-09T09:29:02;10.75;;;4.07;;
72437;SDS011;60444;43.534;-5.674;2022-07-09T09:31:30;10.40;;;3.53;;
72437;SDS011;60444;43.534;-5.674;2022-07-09T09:36:35;10.10;;;3.45;;
72437;SDS011;60444;43.534;-5.674;2022-07-09T09:39:17;8.55;;;3.58;;
72437;SDS011;60444;43.534;-5.674;2022-07-09T09:41:53;10.15;;;3.38;;
72437;SDS011;60444;43.534;-5.674;2022-07-09T09:44:26;10.13;;;3.60;;
72437;SDS011;60444;43.534;-5.674;2022-07-09T09:47:02;9.93;;;3.05;;
72437;SDS011;60444;43.534;-5.674;2022-07-09T09:49:29;11.45;;;3.63;;
72437;SDS011;60444;43.534;-5.674;2022-07-09T09:52:08;9.75;;;3.17;;
72437;SDS011;60444;43.534;-5.674;2022-07-09T09:54:38;9.33;;;3.33;;
72437;SDS011;60444;43.534;-5.674;2022-07-09T09:57:12;9.90;;;3.63;;
72437;SDS011;60444;43.534;-5.674;2022-07-09T09:59:44;11.00;;;3.83;;
72437;SDS011;60444;43.534;-5.674;2022-07-09T10:02:20;13.02;;;3.72;;
72437;SDS011;60444;43.534;-5.674;2022-07-09T10:04:49;8.93;;;3.78;;
72437;SDS011;60444;43.534;-5.674;2022-07-09T10:07:15;8.63;;;3.30;;
72437;SDS011;60444;43.534;-5.674;2022-07-09T10:09:51;9.48;;;3.45;;
72437;SDS011;60444;43.534;-5.674;2022-07-09T10:12:29;14.02;;;3.50;;
72437;SDS011;60444;43.534;-5.674;2022-07-09T10:15:02;10.85;;;3.30;;
72437;SDS011;60444;43.534;-5.674;2022-07-09T10:17:51;9.15;;;3.75;;
72437;SDS011;60444;43.534;-5.674;2022-07-09T10:20:28;10.67;;;3.07;;
72437;SDS011;60444;43.534;-5.674;2022-07-09T10:22:57;10.40;;;3.20;;
72437;SDS011;60444;43.534;-5.674;2022-07-09T10:25:27;8.32;;;3.10;;
72437;SDS011;60444;43.534;-5.674;2022-07-09T10:27:56;10.38;;;3.47;;
72437;SDS011;60444;43.534;-5.674;2022-07-09T10:30:22;13.03;;;3.40;;
72437;SDS011;60444;43.534;-5.674;2022-07-09T10:33:00;11.50;;;3.77;;
72437;SDS011;60444;43.534;-5.674;2022-07-09T10:35:28;12.23;;;3.50;;
72437;SDS011;60444;43.534;-5.674;2022-07-09T10:37:53;10.52;;;3.45;;
72437;SDS011;60444;43.534;-5.674;2022-07-09T10:40:22;9.95;;;3.83;;
72437;SDS011;60444;43.534;-5.674;2022-07-09T10:42:59;12.93;;;3.77;;
72437;SDS011;60444;43.534;-5.674;2022-07-09T10:45:35;9.98;;;3.67;;
72437;SDS011;60444;43.534;-5.674;2022-07-09T10:48:05;10.82;;;4.03;;
72437;SDS011;60444;43.534;-5.674;2022-07-09T10:50:35;10.20;;;3.80;;
72437;SDS011;60444;43.534;-5.674;2022-07-09T10:53:05;10.27;;;4.28;;
72437;SDS011;60444;43.534;-5.674;2022-07-09T10:55:31;12.77;;;4.30;;
72437;SDS011;60444;43.534;-5.674;2022-07-09T10:57:57;10.45;;;4.85;;
72437;SDS011;60444;43.534;-5.674;2022-07-09T11:00:27;12.75;;;5.28;;
72437;SDS011;60444;43.534;-5.674;2022-07-09T11:03:05;9.63;;;4.70;;
72437;SDS011;60444;43.534;-5.674;2022-07-09T11:05:34;13.77;;;5.80;;
72437;SDS011;60444;43.534;-5.674;2022-07-09T11:08:09;12.73;;;5.97;;
72437;SDS011;60444;43.534;-5.674;2022-07-09T11:10:36;11.10;;;5.13;;
72437;SDS011;60444;43.534;-5.674;2022-07-09T11:13:04;9.88;;;5.35;;
72437;SDS011;60444;43.534;-5.674;2022-07-09T11:15:34;11.43;;;5.27;;
72437;SDS011;60444;43.534;-5.674;2022-07-09T11:18:04;13.40;;;5.50;;
72437;SDS011;60444;43.534;-5.674;2022-07-09T11:20:41;10.57;;;5.20;;
72437;SDS011;60444;43.534;-5.674;2022-07-09T11:23:13;9.77;;;4.65;;
72437;SDS011;60444;43.534;-5.674;2022-07-09T11:25:40;11.48;;;5.50;;
72437;SDS011;60444;43.534;-5.674;2022-07-09T11:28:06;9.87;;;5.10;;
72437;SDS011;60444;43.534;-5.674;2022-07-09T11:30:32;10.05;;;4.97;;
72437;SDS011;60444;43.534;-5.674;2022-07-09T11:32:59;9.95;;;4.53;;
72437;SDS011;60444;43.534;-5.674;2022-07-09T11:35:31;11.77;;;4.60;;
72437;SDS011;60444;43.534;-5.674;2022-07-09T11:38:00;9.33;;;4.57;;
72437;SDS011;60444;43.534;-5.674;2022-07-09T11:40:27;14.15;;;4.72;;
72437;SDS011;60444;43.534;-5.674;2022-07-09T11:42:53;7.95;;;4.53;;
72437;SDS011;60444;43.534;-5.674;2022-07-09T11:45:20;14.30;;;4.70;;
72437;SDS011;60444;43.534;-5.674;2022-07-09T11:47:49;9.75;;;4.65;;
72437;SDS011;60444;43.534;-5.674;2022-07-09T11:50:32;8.23;;;3.90;;
72437;SDS011;60444;43.534;-5.674;2022-07-09T11:52:58;9.23;;;4.20;;
72437;SDS011;60444;43.534;-5.674;2022-07-09T11:55:30;8.15;;;4.07;;
72437;SDS011;60444;43.534;-5.674;2022-07-09T11:58:05;11.35;;;4.30;;
72437;SDS011;60444;43.534;-5.674;2022-07-09T12:00:35;11.05;;;4.05;;
72437;SDS011;60444;43.534;-5.674;2022-07-09T12:03:08;10.13;;;4.00;;
72437;SDS011;60444;43.534;-5.674;2022-07-09T12:05:35;11.90;;;3.95;;
72437;SDS011;60444;43.534;-5.674;2022-07-09T12:08:07;9.73;;;4.03;;
72437;SDS011;60444;43.534;-5.674;2022-07-09T12:10:36;8.80;;;3.45;;
72437;SDS011;60444;43.534;-5.674;2022-07-09T12:13:07;10.57;;;3.92;;
72437;SDS011;60444;43.534;-5.674;2022-07-09T12:15:34;10.13;;;4.60;;
72437;SDS011;60444;43.534;-5.674;2022-07-09T12:18:01;12.70;;;4.70;;
72437;SDS011;60444;43.534;-5.674;2022-07-09T12:20:28;9.90;;;4.00;;
72437;SDS011;60444;43.534;-5.674;2022-07-09T12:22:57;9.73;;;3.80;;
72437;SDS011;60444;43.534;-5.674;2022-07-09T12:25:26;7.65;;;4.00;;
72437;SDS011;60444;43.534;-5.674;2022-07-09T12:27:52;10.70;;;4.40;;
72437;SDS011;60444;43.534;-5.674;2022-07-09T12:30:17;11.35;;;4.18;;
72437;SDS011;60444;43.534;-5.674;2022-07-09T12:32:44;9.13;;;4.03;;
72437;SDS011;60444;43.534;-5.674;2022-07-09T12:35:10;8.40;;;4.00;;
72437;SDS011;60444;43.534;-5.674;2022-07-09T12:37:36;11.18;;;4.18;;
72437;SDS011;60444;43.534;-5.674;2022-07-09T12:40:06;8.93;;;3.92;;
72437;SDS011;60444;43.534;-5.674;2022-07-09T12:42:36;11.57;;;3.70;;
72437;SDS011;60444;43.534;-5.674;2022-07-09T12:45:05;28.60;;;11.17;;
72437;SDS011;60444;43.534;-5.674;2022-07-09T12:47:31;11.50;;;3.83;;
72437;SDS011;60444;43.534;-5.674;2022-07-09T12:49:57;8.52;;;3.50;;
72437;SDS011;60444;43.534;-5.674;2022-07-09T12:52:29;9.70;;;3.70;;
72437;SDS011;60444;43.534;-5.674;2022-07-09T12:55:00;10.07;;;3.80;;
72437;SDS011;60444;43.534;-5.674;2022-07-09T12:57:27;10.68;;;3.85;;
72437;SDS011;60444;43.534;-5.674;2022-07-09T12:59:53;9.85;;;3.13;;
72437;SDS011;60444;43.534;-5.674;2022-07-09T13:02:18;9.67;;;3.50;;
72437;SDS011;60444;43.534;-5.674;2022-07-09T13:04:44;7.75;;;3.33;;
72437;SDS011;60444;43.534;-5.674;2022-07-09T13:07:10;8.93;;;3.20;;
72437;SDS011;60444;43.534;-5.674;2022-07-09T13:09:36;10.73;;;3.43;;
72437;SDS011;60444;43.534;-5.674;2022-07-09T13:12:05;8.00;;;3.20;;
72437;SDS011;60444;43.534;-5.674;2022-07-09T13:14:30;7.57;;;3.17;;
72437;SDS011;60444;43.534;-5.674;2022-07-09T13:16:56;9.75;;;3.40;;
72437;SDS011;60444;43.534;-5.674;2022-07-09T13:19:24;10.85;;;3.50;;
72437;SDS011;60444;43.534;-5.674;2022-07-09T13:21:53;11.47;;;3.27;;
72437;SDS011;60444;43.534;-5.674;2022-07-09T13:24:19;9.95;;;4.22;;
72437;SDS011;60444;43.534;-5.674;2022-07-09T13:26:47;9.37;;;3.00;;
72437;SDS011;60444;43.534;-5.674;2022-07-09T13:29:16;8.82;;;3.10;;
72437;SDS011;60444;43.534;-5.674;2022-07-09T13:31:41;9.67;;;3.30;;
72437;SDS011;60444;43.534;-5.674;2022-07-09T13:34:07;11.80;;;3.55;;
72437;SDS011;60444;43.534;-5.674;2022-07-09T13:36:33;8.83;;;3.20;;
72437;SDS011;60444;43.534;-5.674;2022-07-09T13:38:58;9.68;;;3.13;;
72437;SDS011;60444;43.534;-5.674;2022-07-09T13:41:26;9.50;;;2.87;;
72437;SDS011;60444;43.534;-5.674;2022-07-09T13:43:52;11.52;;;3.20;;
72437;SDS011;60444;43.534;-5.674;2022-07-09T13:46:17;10.77;;;3.00;;
72437;SDS011;60444;43.534;-5.674;2022-07-09T13:48:46;10.43;;;2.92;;
72437;SDS011;60444;43.534;-5.674;2022-07-09T13:51:11;7.50;;;3.03;;
72437;SDS011;60444;43.534;-5.674;2022-07-09T13:53:37;11.20;;;3.13;;
72437;SDS011;60444;43.534;-5.674;2022-07-09T13:56:03;9.17;;;2.73;;
72437;SDS011;60444;43.534;-5.674;2022-07-09T13:58:30;11.45;;;2.70;;
72437;SDS011;60444;43.534;-5.674;2022-07-09T14:00:55;9.15;;;3.08;;
72437;SDS011;60444;43.534;-5.674;2022-07-09T14:03:24;6.97;;;2.47;;
72437;SDS011;60444;43.534;-5.674;2022-07-09T14:05:50;9.88;;;3.47;;
72437;SDS011;60444;43.534;-5.674;2022-07-09T14:08:18;8.07;;;2.80;;
72437;SDS011;60444;43.534;-5.674;2022-07-09T14:10:53;11.13;;;3.07;;
72437;SDS011;60444;43.534;-5.674;2022-07-09T14:13:23;7.38;;;2.80;;
72437;SDS011;60444;43.534;-5.674;2022-07-09T14:15:55;6.45;;;2.63;;
72437;SDS011;60444;43.534;-5.674;2022-07-09T14:18:24;7.55;;;2.50;;
72437;SDS011;60444;43.534;-5.674;2022-07-09T14:20:49;7.47;;;2.40;;
72437;SDS011;60444;43.534;-5.674;2022-07-09T14:23:15;11.10;;;3.30;;
72437;SDS011;60444;43.534;-5.674;2022-07-09T14:25:44;9.20;;;2.88;;
72437;SDS011;60444;43.534;-5.674;2022-07-09T14:28:13;10.50;;;3.13;;
72437;SDS011;60444;43.534;-5.674;2022-07-09T14:30:39;9.98;;;2.65;;
72437;SDS011;60444;43.534;-5.674;2022-07-09T14:33:05;8.67;;;3.00;;
72437;SDS011;60444;43.534;-5.674;2022-07-09T14:35:31;8.65;;;2.65;;
72437;SDS011;60444;43.534;-5.674;2022-07-09T14:37:58;7.78;;;2.38;;